sensor_id;sensor_type;location;lat;lon;timestamp;temperature;humidity
24217;DHT22;12356;49.386;8.688;2024-02-15T00:01:10;11.70;93.20
24217;DHT22;12356;49.386;8.688;2024-02-15T00:03:41;11.60;93.00
24217;DHT22;12356;49.386;8.688;2024-02-15T00:06:11;11.60;93.10
24217;DHT22;12356;49.386;8.688;2024-02-15T00:08:42;11.60;93.20
24217;DHT22;12356;49.386;8.688;2024-02-15T00:11:12;11.60;93.00
24217;DHT22;12356;49.386;8.688;2024-02-15T00:13:44;11.70;93.10
24217;DHT22;12356;49.386;8.688;2024-02-15T00:16:14;11.60;92.80
24217;DHT22;12356;49.386;8.688;2024-02-15T00:18:45;11.60;92.60
24217;DHT22;12356;49.386;8.688;2024-02-15T00:21:16;11.60;92.60
24217;DHT22;12356;49.386;8.688;2024-02-15T00:23:46;11.60;92.40
24217;DHT22;12356;49.386;8.688;2024-02-15T00:26:17;11.60;92.40
24217;DHT22;12356;49.386;8.688;2024-02-15T00:28:47;11.60;92.20
24217;DHT22;12356;49.386;8.688;2024-02-15T00:31:18;11.60;92.00
24217;DHT22;12356;49.386;8.688;2024-02-15T00:33:49;11.60;91.90
24217;DHT22;12356;49.386;8.688;2024-02-15T00:36:19;11.50;91.90
24217;DHT22;12356;49.386;8.688;2024-02-15T00:38:50;11.50;92.00
24217;DHT22;12356;49.386;8.688;2024-02-15T00:41:22;11.50;91.90
24217;DHT22;12356;49.386;8.688;2024-02-15T00:43:52;11.50;92.00
24217;DHT22;12356;49.386;8.688;2024-02-15T00:46:23;11.50;91.90
24217;DHT22;12356;49.386;8.688;2024-02-15T00:48:53;11.50;91.90
24217;DHT22;12356;49.386;8.688;2024-02-15T00:51:24;11.50;92.10
24217;DHT22;12356;49.386;8.688;2024-02-15T00:53:54;11.50;92.00
24217;DHT22;12356;49.386;8.688;2024-02-15T00:56:25;11.50;91.80
24217;DHT22;12356;49.386;8.688;2024-02-15T00:58:55;11.50;91.80
24217;DHT22;12356;49.386;8.688;2024-02-15T01:01:26;11.50;91.70
24217;DHT22;12356;49.386;8.688;2024-02-15T01:03:57;11.50;91.80
24217;DHT22;12356;49.386;8.688;2024-02-15T01:06:27;11.50;91.70
24217;DHT22;12356;49.386;8.688;2024-02-15T01:08:59;11.50;91.60
24217;DHT22;12356;49.386;8.688;2024-02-15T01:11:31;11.40;91.50
24217;DHT22;12356;49.386;8.688;2024-02-15T01:14:02;11.40;91.80
24217;DHT22;12356;49.386;8.688;2024-02-15T01:16:33;11.40;91.80
24217;DHT22;12356;49.386;8.688;2024-02-15T01:19:05;11.40;92.00
24217;DHT22;12356;49.386;8.688;2024-02-15T01:21:36;11.40;91.80
24217;DHT22;12356;49.386;8.688;2024-02-15T01:24:07;11.40;91.90
24217;DHT22;12356;49.386;8.688;2024-02-15T01:26:37;11.30;91.80
24217;DHT22;12356;49.386;8.688;2024-02-15T01:29:08;11.30;91.60
24217;DHT22;12356;49.386;8.688;2024-02-15T01:31:42;11.40;91.70
24217;DHT22;12356;49.386;8.688;2024-02-15T01:34:13;11.40;91.60
24217;DHT22;12356;49.386;8.688;2024-02-15T01:36:44;11.40;91.30
24217;DHT22;12356;49.386;8.688;2024-02-15T01:39:14;11.40;91.60
24217;DHT22;12356;49.386;8.688;2024-02-15T01:41:48;11.50;91.60
24217;DHT22;12356;49.386;8.688;2024-02-15T01:44:21;11.40;91.20
24217;DHT22;12356;49.386;8.688;2024-02-15T01:46:54;11.40;91.60
24217;DHT22;12356;49.386;8.688;2024-02-15T01:49:27;11.40;91.20
24217;DHT22;12356;49.386;8.688;2024-02-15T01:51:58;11.40;91.20
24217;DHT22;12356;49.386;8.688;2024-02-15T01:54:31;11.40;90.90
24217;DHT22;12356;49.386;8.688;2024-02-15T01:57:03;11.40;91.00
24217;DHT22;12356;49.386;8.688;2024-02-15T01:59:34;11.50;90.80
24217;DHT22;12356;49.386;8.688;2024-02-15T02:02:08;11.50;90.90
24217;DHT22;12356;49.386;8.688;2024-02-15T02:04:41;11.50;90.50
24217;DHT22;12356;49.386;8.688;2024-02-15T02:07:12;11.50;90.40
24217;DHT22;12356;49.386;8.688;2024-02-15T02:09:43;11.50;90.60
24217;DHT22;12356;49.386;8.688;2024-02-15T02:12:16;11.60;90.40
24217;DHT22;12356;49.386;8.688;2024-02-15T02:14:46;11.50;89.30
24217;DHT22;12356;49.386;8.688;2024-02-15T02:17:17;11.60;89.50
24217;DHT22;12356;49.386;8.688;2024-02-15T02:19:50;11.50;88.90
24217;DHT22;12356;49.386;8.688;2024-02-15T02:22:20;11.50;89.60
24217;DHT22;12356;49.386;8.688;2024-02-15T02:25:06;11.60;89.80
24217;DHT22;12356;49.386;8.688;2024-02-15T02:27:38;11.60;89.40
24217;DHT22;12356;49.386;8.688;2024-02-15T02:30:16;11.60;89.40
24217;DHT22;12356;49.386;8.688;2024-02-15T02:32:49;11.60;89.20
24217;DHT22;12356;49.386;8.688;2024-02-15T02:35:20;11.60;89.30
24217;DHT22;12356;49.386;8.688;2024-02-15T02:37:51;11.50;89.10
24217;DHT22;12356;49.386;8.688;2024-02-15T02:40:23;11.50;89.00
24217;DHT22;12356;49.386;8.688;2024-02-15T02:42:56;11.50;88.50
24217;DHT22;12356;49.386;8.688;2024-02-15T02:45:27;11.50;89.00
24217;DHT22;12356;49.386;8.688;2024-02-15T02:47:57;11.60;89.00
24217;DHT22;12356;49.386;8.688;2024-02-15T02:50:28;11.60;88.30
24217;DHT22;12356;49.386;8.688;2024-02-15T02:52:58;11.50;88.50
24217;DHT22;12356;49.386;8.688;2024-02-15T02:55:29;11.50;88.40
24217;DHT22;12356;49.386;8.688;2024-02-15T02:58:01;11.50;87.70
24217;DHT22;12356;49.386;8.688;2024-02-15T03:00:31;11.40;87.50
24217;DHT22;12356;49.386;8.688;2024-02-15T03:03:02;11.50;88.00
24217;DHT22;12356;49.386;8.688;2024-02-15T03:05:33;11.50;87.90
24217;DHT22;12356;49.386;8.688;2024-02-15T03:08:04;11.50;87.20
24217;DHT22;12356;49.386;8.688;2024-02-15T03:10:35;11.50;87.20
24217;DHT22;12356;49.386;8.688;2024-02-15T03:13:05;11.50;85.80
24217;DHT22;12356;49.386;8.688;2024-02-15T03:15:36;11.50;85.70
24217;DHT22;12356;49.386;8.688;2024-02-15T03:18:07;11.50;85.70
24217;DHT22;12356;49.386;8.688;2024-02-15T03:20:38;11.50;85.60
24217;DHT22;12356;49.386;8.688;2024-02-15T03:23:09;11.50;85.80
24217;DHT22;12356;49.386;8.688;2024-02-15T03:25:41;11.50;85.00
24217;DHT22;12356;49.386;8.688;2024-02-15T03:28:12;11.50;85.00
24217;DHT22;12356;49.386;8.688;2024-02-15T03:30:42;11.60;84.70
24217;DHT22;12356;49.386;8.688;2024-02-15T03:33:16;11.60;83.50
24217;DHT22;12356;49.386;8.688;2024-02-15T03:35:46;11.50;81.70
24217;DHT22;12356;49.386;8.688;2024-02-15T03:38:17;11.50;81.30
24217;DHT22;12356;49.386;8.688;2024-02-15T03:40:48;11.50;81.40
24217;DHT22;12356;49.386;8.688;2024-02-15T03:43:19;11.60;81.60
24217;DHT22;12356;49.386;8.688;2024-02-15T03:45:50;11.60;81.70
24217;DHT22;12356;49.386;8.688;2024-02-15T03:48:21;11.60;81.70
24217;DHT22;12356;49.386;8.688;2024-02-15T03:50:51;11.70;82.10
24217;DHT22;12356;49.386;8.688;2024-02-15T03:53:22;11.70;82.00
24217;DHT22;12356;49.386;8.688;2024-02-15T03:55:52;11.70;81.50
24217;DHT22;12356;49.386;8.688;2024-02-15T03:58:23;11.70;81.20
24217;DHT22;12356;49.386;8.688;2024-02-15T04:00:54;11.70;81.30
24217;DHT22;12356;49.386;8.688;2024-02-15T04:03:26;11.70;81.70
24217;DHT22;12356;49.386;8.688;2024-02-15T04:05:57;11.70;82.00
24217;DHT22;12356;49.386;8.688;2024-02-15T04:08:28;11.70;82.30
24217;DHT22;12356;49.386;8.688;2024-02-15T04:10:59;11.70;80.90
24217;DHT22;12356;49.386;8.688;2024-02-15T04:13:29;11.60;81.70
24217;DHT22;12356;49.386;8.688;2024-02-15T04:16:00;11.60;82.80
24217;DHT22;12356;49.386;8.688;2024-02-15T04:18:30;11.60;82.80
24217;DHT22;12356;49.386;8.688;2024-02-15T04:21:02;11.50;83.10
24217;DHT22;12356;49.386;8.688;2024-02-15T04:23:33;11.50;83.40
24217;DHT22;12356;49.386;8.688;2024-02-15T04:26:04;11.50;84.20
24217;DHT22;12356;49.386;8.688;2024-02-15T04:28:34;11.50;84.40
24217;DHT22;12356;49.386;8.688;2024-02-15T04:31:05;11.50;84.40
24217;DHT22;12356;49.386;8.688;2024-02-15T04:33:38;11.50;84.50
24217;DHT22;12356;49.386;8.688;2024-02-15T04:36:10;11.40;84.40
24217;DHT22;12356;49.386;8.688;2024-02-15T04:38:42;11.40;84.50
24217;DHT22;12356;49.386;8.688;2024-02-15T04:41:14;11.50;84.40
24217;DHT22;12356;49.386;8.688;2024-02-15T04:43:48;11.50;84.40
24217;DHT22;12356;49.386;8.688;2024-02-15T04:46:18;11.50;84.20
24217;DHT22;12356;49.386;8.688;2024-02-15T04:48:52;11.50;83.30
24217;DHT22;12356;49.386;8.688;2024-02-15T04:51:22;11.60;82.90
24217;DHT22;12356;49.386;8.688;2024-02-15T04:53:53;11.60;83.00
24217;DHT22;12356;49.386;8.688;2024-02-15T04:56:23;11.60;83.20
24217;DHT22;12356;49.386;8.688;2024-02-15T04:58:54;11.60;83.10
24217;DHT22;12356;49.386;8.688;2024-02-15T05:01:24;11.60;83.20
24217;DHT22;12356;49.386;8.688;2024-02-15T05:03:55;11.50;83.50
24217;DHT22;12356;49.386;8.688;2024-02-15T05:06:26;11.50;83.30
24217;DHT22;12356;49.386;8.688;2024-02-15T05:09:00;11.40;82.80
24217;DHT22;12356;49.386;8.688;2024-02-15T05:11:30;11.40;82.80
24217;DHT22;12356;49.386;8.688;2024-02-15T05:14:04;11.50;82.50
24217;DHT22;12356;49.386;8.688;2024-02-15T05:16:37;11.50;82.40
24217;DHT22;12356;49.386;8.688;2024-02-15T05:19:12;11.50;82.40
24217;DHT22;12356;49.386;8.688;2024-02-15T05:21:46;11.50;82.10
24217;DHT22;12356;49.386;8.688;2024-02-15T05:24:17;11.40;80.70
24217;DHT22;12356;49.386;8.688;2024-02-15T05:26:49;11.50;80.60
24217;DHT22;12356;49.386;8.688;2024-02-15T05:29:20;11.50;79.90
24217;DHT22;12356;49.386;8.688;2024-02-15T05:31:51;11.60;79.80
24217;DHT22;12356;49.386;8.688;2024-02-15T05:34:22;11.60;79.30
24217;DHT22;12356;49.386;8.688;2024-02-15T05:36:52;11.50;78.80
24217;DHT22;12356;49.386;8.688;2024-02-15T05:39:23;11.60;78.40
24217;DHT22;12356;49.386;8.688;2024-02-15T05:41:53;11.60;77.60
24217;DHT22;12356;49.386;8.688;2024-02-15T05:44:24;11.60;77.00
24217;DHT22;12356;49.386;8.688;2024-02-15T05:46:56;11.50;76.50
24217;DHT22;12356;49.386;8.688;2024-02-15T05:49:26;11.60;76.40
24217;DHT22;12356;49.386;8.688;2024-02-15T05:51:58;11.60;76.00
24217;DHT22;12356;49.386;8.688;2024-02-15T05:54:28;11.60;76.20
24217;DHT22;12356;49.386;8.688;2024-02-15T05:56:59;11.70;74.80
24217;DHT22;12356;49.386;8.688;2024-02-15T05:59:31;11.70;75.00
24217;DHT22;12356;49.386;8.688;2024-02-15T06:02:01;11.70;75.70
24217;DHT22;12356;49.386;8.688;2024-02-15T06:04:33;11.70;76.60
24217;DHT22;12356;49.386;8.688;2024-02-15T06:07:03;11.70;76.40
24217;DHT22;12356;49.386;8.688;2024-02-15T06:09:34;11.70;76.30
24217;DHT22;12356;49.386;8.688;2024-02-15T06:12:07;11.60;76.10
24217;DHT22;12356;49.386;8.688;2024-02-15T06:14:37;11.70;76.60
24217;DHT22;12356;49.386;8.688;2024-02-15T06:17:08;11.60;76.50
24217;DHT22;12356;49.386;8.688;2024-02-15T06:19:41;11.60;75.40
24217;DHT22;12356;49.386;8.688;2024-02-15T06:22:11;11.70;74.40
24217;DHT22;12356;49.386;8.688;2024-02-15T06:24:42;11.70;74.80
24217;DHT22;12356;49.386;8.688;2024-02-15T06:27:13;11.70;74.50
24217;DHT22;12356;49.386;8.688;2024-02-15T06:29:44;11.70;74.40
24217;DHT22;12356;49.386;8.688;2024-02-15T06:32:33;11.70;74.30
24217;DHT22;12356;49.386;8.688;2024-02-15T06:35:22;11.70;73.20
24217;DHT22;12356;49.386;8.688;2024-02-15T06:38:12;11.70;73.20
24217;DHT22;12356;49.386;8.688;2024-02-15T06:41:01;11.70;72.60
24217;DHT22;12356;49.386;8.688;2024-02-15T06:43:32;11.70;71.20
24217;DHT22;12356;49.386;8.688;2024-02-15T06:46:06;11.70;71.30
24217;DHT22;12356;49.386;8.688;2024-02-15T06:48:36;11.70;71.60
24217;DHT22;12356;49.386;8.688;2024-02-15T06:51:07;11.70;72.00
24217;DHT22;12356;49.386;8.688;2024-02-15T06:53:43;11.70;71.90
24217;DHT22;12356;49.386;8.688;2024-02-15T06:56:14;11.70;71.80
24217;DHT22;12356;49.386;8.688;2024-02-15T06:58:44;11.70;71.40
24217;DHT22;12356;49.386;8.688;2024-02-15T07:01:15;11.70;70.70
24217;DHT22;12356;49.386;8.688;2024-02-15T07:03:46;11.80;70.60
24217;DHT22;12356;49.386;8.688;2024-02-15T07:06:17;11.80;69.20
24217;DHT22;12356;49.386;8.688;2024-02-15T07:08:48;11.80;68.70
24217;DHT22;12356;49.386;8.688;2024-02-15T07:11:21;11.80;68.00
24217;DHT22;12356;49.386;8.688;2024-02-15T07:13:52;11.80;68.50
24217;DHT22;12356;49.386;8.688;2024-02-15T07:16:24;11.90;68.00
24217;DHT22;12356;49.386;8.688;2024-02-15T07:18:55;11.90;68.30
24217;DHT22;12356;49.386;8.688;2024-02-15T07:21:26;11.90;69.00
24217;DHT22;12356;49.386;8.688;2024-02-15T07:23:57;12.00;69.60
24217;DHT22;12356;49.386;8.688;2024-02-15T07:26:29;11.90;69.30
24217;DHT22;12356;49.386;8.688;2024-02-15T07:29:00;12.00;69.50
24217;DHT22;12356;49.386;8.688;2024-02-15T07:31:32;12.00;69.50
24217;DHT22;12356;49.386;8.688;2024-02-15T07:34:03;11.90;68.90
24217;DHT22;12356;49.386;8.688;2024-02-15T07:36:35;11.90;68.00
24217;DHT22;12356;49.386;8.688;2024-02-15T07:39:06;11.90;67.90
24217;DHT22;12356;49.386;8.688;2024-02-15T07:41:37;12.00;67.90
24217;DHT22;12356;49.386;8.688;2024-02-15T07:44:08;11.90;66.80
24217;DHT22;12356;49.386;8.688;2024-02-15T07:46:38;12.00;67.50
24217;DHT22;12356;49.386;8.688;2024-02-15T07:49:09;12.00;67.60
24217;DHT22;12356;49.386;8.688;2024-02-15T07:51:40;12.10;68.20
24217;DHT22;12356;49.386;8.688;2024-02-15T07:54:10;12.10;68.80
24217;DHT22;12356;49.386;8.688;2024-02-15T07:56:42;12.10;68.50
24217;DHT22;12356;49.386;8.688;2024-02-15T07:59:12;12.10;69.10
24217;DHT22;12356;49.386;8.688;2024-02-15T08:01:43;12.20;70.40
24217;DHT22;12356;49.386;8.688;2024-02-15T08:04:16;12.10;70.80
24217;DHT22;12356;49.386;8.688;2024-02-15T08:06:54;12.20;70.40
24217;DHT22;12356;49.386;8.688;2024-02-15T08:09:25;12.10;69.70
24217;DHT22;12356;49.386;8.688;2024-02-15T08:11:56;12.10;67.50
24217;DHT22;12356;49.386;8.688;2024-02-15T08:14:27;12.10;66.80
24217;DHT22;12356;49.386;8.688;2024-02-15T08:16:57;12.10;66.80
24217;DHT22;12356;49.386;8.688;2024-02-15T08:19:28;12.20;66.90
24217;DHT22;12356;49.386;8.688;2024-02-15T08:22:04;12.20;65.90
24217;DHT22;12356;49.386;8.688;2024-02-15T08:24:35;12.20;65.90
24217;DHT22;12356;49.386;8.688;2024-02-15T08:27:06;12.20;66.90
24217;DHT22;12356;49.386;8.688;2024-02-15T08:29:36;12.30;66.10
24217;DHT22;12356;49.386;8.688;2024-02-15T08:32:07;12.30;65.70
24217;DHT22;12356;49.386;8.688;2024-02-15T08:34:38;12.30;65.30
24217;DHT22;12356;49.386;8.688;2024-02-15T08:37:09;12.30;66.20
24217;DHT22;12356;49.386;8.688;2024-02-15T08:39:40;12.30;68.80
24217;DHT22;12356;49.386;8.688;2024-02-15T08:42:11;12.30;70.50
24217;DHT22;12356;49.386;8.688;2024-02-15T08:44:41;12.30;70.70
24217;DHT22;12356;49.386;8.688;2024-02-15T08:47:12;12.30;70.30
24217;DHT22;12356;49.386;8.688;2024-02-15T08:49:42;12.40;68.60
24217;DHT22;12356;49.386;8.688;2024-02-15T08:52:13;12.40;67.70
24217;DHT22;12356;49.386;8.688;2024-02-15T08:54:44;12.30;68.50
24217;DHT22;12356;49.386;8.688;2024-02-15T08:57:14;12.30;67.00
24217;DHT22;12356;49.386;8.688;2024-02-15T08:59:45;12.40;64.20
24217;DHT22;12356;49.386;8.688;2024-02-15T09:02:16;12.40;63.70
24217;DHT22;12356;49.386;8.688;2024-02-15T09:04:47;12.40;64.20
24217;DHT22;12356;49.386;8.688;2024-02-15T09:07:18;12.50;65.50
24217;DHT22;12356;49.386;8.688;2024-02-15T09:09:48;12.40;66.80
24217;DHT22;12356;49.386;8.688;2024-02-15T09:12:19;12.40;67.40
24217;DHT22;12356;49.386;8.688;2024-02-15T09:14:49;12.50;68.10
24217;DHT22;12356;49.386;8.688;2024-02-15T09:17:20;12.50;67.10
24217;DHT22;12356;49.386;8.688;2024-02-15T09:19:50;12.50;65.50
24217;DHT22;12356;49.386;8.688;2024-02-15T09:22:21;12.60;65.20
24217;DHT22;12356;49.386;8.688;2024-02-15T09:24:52;12.60;64.20
24217;DHT22;12356;49.386;8.688;2024-02-15T09:27:22;12.60;62.90
24217;DHT22;12356;49.386;8.688;2024-02-15T09:29:53;12.60;63.50
24217;DHT22;12356;49.386;8.688;2024-02-15T09:32:23;12.60;59.70
24217;DHT22;12356;49.386;8.688;2024-02-15T09:34:54;12.60;59.00
24217;DHT22;12356;49.386;8.688;2024-02-15T09:37:24;12.70;56.40
24217;DHT22;12356;49.386;8.688;2024-02-15T09:39:56;12.70;54.20
24217;DHT22;12356;49.386;8.688;2024-02-15T09:42:29;12.80;52.00
24217;DHT22;12356;49.386;8.688;2024-02-15T09:45:00;12.80;51.60
24217;DHT22;12356;49.386;8.688;2024-02-15T09:47:35;12.90;52.70
24217;DHT22;12356;49.386;8.688;2024-02-15T09:50:07;13.00;53.70
24217;DHT22;12356;49.386;8.688;2024-02-15T09:52:39;13.00;55.50
24217;DHT22;12356;49.386;8.688;2024-02-15T09:55:11;13.10;53.20
24217;DHT22;12356;49.386;8.688;2024-02-15T09:57:44;13.10;54.40
24217;DHT22;12356;49.386;8.688;2024-02-15T10:00:16;13.20;52.90
24217;DHT22;12356;49.386;8.688;2024-02-15T10:02:49;13.20;47.50
24217;DHT22;12356;49.386;8.688;2024-02-15T10:05:20;13.30;44.30
24217;DHT22;12356;49.386;8.688;2024-02-15T10:07:51;13.30;44.80
24217;DHT22;12356;49.386;8.688;2024-02-15T10:10:23;13.40;46.50
24217;DHT22;12356;49.386;8.688;2024-02-15T10:12:55;13.50;48.30
24217;DHT22;12356;49.386;8.688;2024-02-15T10:15:35;13.50;47.40
24217;DHT22;12356;49.386;8.688;2024-02-15T10:18:09;13.60;46.70
24217;DHT22;12356;49.386;8.688;2024-02-15T10:20:42;13.60;47.20
24217;DHT22;12356;49.386;8.688;2024-02-15T10:23:16;13.70;46.10
24217;DHT22;12356;49.386;8.688;2024-02-15T10:25:47;13.70;42.60
24217;DHT22;12356;49.386;8.688;2024-02-15T10:28:21;13.80;41.80
24217;DHT22;12356;49.386;8.688;2024-02-15T10:30:53;13.80;38.80
24217;DHT22;12356;49.386;8.688;2024-02-15T10:33:28;13.80;38.40
24217;DHT22;12356;49.386;8.688;2024-02-15T10:36:06;13.90;38.60
24217;DHT22;12356;49.386;8.688;2024-02-15T10:38:38;13.90;39.30
24217;DHT22;12356;49.386;8.688;2024-02-15T10:41:09;14.00;37.90
24217;DHT22;12356;49.386;8.688;2024-02-15T10:43:42;14.00;36.80
24217;DHT22;12356;49.386;8.688;2024-02-15T10:46:14;14.10;35.70
24217;DHT22;12356;49.386;8.688;2024-02-15T10:48:46;14.20;35.30
24217;DHT22;12356;49.386;8.688;2024-02-15T10:51:18;14.20;34.50
24217;DHT22;12356;49.386;8.688;2024-02-15T10:54:02;14.30;30.10
24217;DHT22;12356;49.386;8.688;2024-02-15T10:56:37;14.30;29.60
24217;DHT22;12356;49.386;8.688;2024-02-15T10:59:16;14.40;31.10
24217;DHT22;12356;49.386;8.688;2024-02-15T11:01:49;14.40;29.50
24217;DHT22;12356;49.386;8.688;2024-02-15T11:04:24;14.50;28.00
24217;DHT22;12356;49.386;8.688;2024-02-15T11:06:57;14.50;29.50
24217;DHT22;12356;49.386;8.688;2024-02-15T11:09:29;14.50;29.70
24217;DHT22;12356;49.386;8.688;2024-02-15T11:12:00;14.50;27.90
24217;DHT22;12356;49.386;8.688;2024-02-15T11:14:32;14.60;25.80
24217;DHT22;12356;49.386;8.688;2024-02-15T11:17:05;14.60;24.20
24217;DHT22;12356;49.386;8.688;2024-02-15T11:22:14;14.70;25.20
24217;DHT22;12356;49.386;8.688;2024-02-15T11:24:51;14.70;22.40
24217;DHT22;12356;49.386;8.688;2024-02-15T11:27:26;14.80;22.70
24217;DHT22;12356;49.386;8.688;2024-02-15T11:29:58;14.80;23.90
24217;DHT22;12356;49.386;8.688;2024-02-15T11:32:55;14.80;23.10
24217;DHT22;12356;49.386;8.688;2024-02-15T11:35:27;14.90;23.00
24217;DHT22;12356;49.386;8.688;2024-02-15T11:38:00;14.90;23.80
24217;DHT22;12356;49.386;8.688;2024-02-15T11:46:21;14.90;25.70
24217;DHT22;12356;49.386;8.688;2024-02-15T11:48:53;14.90;25.00
24217;DHT22;12356;49.386;8.688;2024-02-15T11:51:25;14.90;23.80
24217;DHT22;12356;49.386;8.688;2024-02-15T11:54:06;14.90;24.10
24217;DHT22;12356;49.386;8.688;2024-02-15T11:59:14;14.90;21.60
24217;DHT22;12356;49.386;8.688;2024-02-15T12:02:03;15.00;22.20
24217;DHT22;12356;49.386;8.688;2024-02-15T12:04:52;14.90;22.90
24217;DHT22;12356;49.386;8.688;2024-02-15T12:07:41;15.00;23.10
24217;DHT22;12356;49.386;8.688;2024-02-15T12:10:30;15.00;24.10
24217;DHT22;12356;49.386;8.688;2024-02-15T12:13:20;15.00;25.10
24217;DHT22;12356;49.386;8.688;2024-02-15T12:16:09;15.00;23.50
24217;DHT22;12356;49.386;8.688;2024-02-15T12:18:58;15.00;23.20
24217;DHT22;12356;49.386;8.688;2024-02-15T12:21:29;15.00;23.90
24217;DHT22;12356;49.386;8.688;2024-02-15T12:24:00;15.00;24.90
24217;DHT22;12356;49.386;8.688;2024-02-15T12:26:31;15.00;25.20
24217;DHT22;12356;49.386;8.688;2024-02-15T12:29:05;15.00;24.50
24217;DHT22;12356;49.386;8.688;2024-02-15T12:31:37;15.00;25.00
24217;DHT22;12356;49.386;8.688;2024-02-15T12:34:08;15.10;25.90
24217;DHT22;12356;49.386;8.688;2024-02-15T12:36:39;15.10;26.00
24217;DHT22;12356;49.386;8.688;2024-02-15T12:39:09;15.10;26.00
24217;DHT22;12356;49.386;8.688;2024-02-15T12:41:48;15.10;23.60
24217;DHT22;12356;49.386;8.688;2024-02-15T12:44:22;15.10;24.50
24217;DHT22;12356;49.386;8.688;2024-02-15T12:46:57;15.10;24.40
24217;DHT22;12356;49.386;8.688;2024-02-15T12:49:30;15.10;24.40
24217;DHT22;12356;49.386;8.688;2024-02-15T12:52:33;15.10;25.10
24217;DHT22;12356;49.386;8.688;2024-02-15T12:55:13;15.10;21.60
24217;DHT22;12356;49.386;8.688;2024-02-15T12:57:48;15.10;22.80
24217;DHT22;12356;49.386;8.688;2024-02-15T13:00:25;15.20;23.10
24217;DHT22;12356;49.386;8.688;2024-02-15T13:03:00;15.20;21.10
24217;DHT22;12356;49.386;8.688;2024-02-15T13:05:33;15.20;21.40
24217;DHT22;12356;49.386;8.688;2024-02-15T13:08:04;15.20;20.50
24217;DHT22;12356;49.386;8.688;2024-02-15T13:10:43;15.20;22.00
24217;DHT22;12356;49.386;8.688;2024-02-15T13:13:14;15.20;20.60
24217;DHT22;12356;49.386;8.688;2024-02-15T13:15:46;15.30;19.80
24217;DHT22;12356;49.386;8.688;2024-02-15T13:18:17;15.30;18.20
24217;DHT22;12356;49.386;8.688;2024-02-15T13:20:48;15.30;20.40
24217;DHT22;12356;49.386;8.688;2024-02-15T13:23:22;15.30;19.50
24217;DHT22;12356;49.386;8.688;2024-02-15T13:25:55;15.30;19.70
24217;DHT22;12356;49.386;8.688;2024-02-15T13:28:27;15.30;17.10
24217;DHT22;12356;49.386;8.688;2024-02-15T13:30:58;15.30;18.30
24217;DHT22;12356;49.386;8.688;2024-02-15T13:33:28;15.30;17.90
24217;DHT22;12356;49.386;8.688;2024-02-15T13:36:02;15.30;18.00
24217;DHT22;12356;49.386;8.688;2024-02-15T13:38:32;15.30;17.50
24217;DHT22;12356;49.386;8.688;2024-02-15T13:41:03;15.30;18.00
24217;DHT22;12356;49.386;8.688;2024-02-15T13:43:34;15.20;19.20
24217;DHT22;12356;49.386;8.688;2024-02-15T13:46:05;15.20;18.40
24217;DHT22;12356;49.386;8.688;2024-02-15T13:48:35;15.20;18.70
24217;DHT22;12356;49.386;8.688;2024-02-15T13:51:06;15.20;17.20
24217;DHT22;12356;49.386;8.688;2024-02-15T13:53:39;15.20;17.80
24217;DHT22;12356;49.386;8.688;2024-02-15T13:56:10;15.20;18.80
24217;DHT22;12356;49.386;8.688;2024-02-15T13:58:40;15.20;18.80
24217;DHT22;12356;49.386;8.688;2024-02-15T14:01:11;15.20;16.70
24217;DHT22;12356;49.386;8.688;2024-02-15T14:03:44;15.20;16.60
24217;DHT22;12356;49.386;8.688;2024-02-15T14:06:17;15.20;16.20
24217;DHT22;12356;49.386;8.688;2024-02-15T14:08:49;15.20;16.20
24217;DHT22;12356;49.386;8.688;2024-02-15T14:11:21;15.20;16.40
24217;DHT22;12356;49.386;8.688;2024-02-15T14:13:51;15.20;17.10
24217;DHT22;12356;49.386;8.688;2024-02-15T14:16:28;15.20;16.00
24217;DHT22;12356;49.386;8.688;2024-02-15T14:18:59;15.20;16.30
24217;DHT22;12356;49.386;8.688;2024-02-15T14:21:34;15.20;15.80
24217;DHT22;12356;49.386;8.688;2024-02-15T14:24:08;15.20;14.90
24217;DHT22;12356;49.386;8.688;2024-02-15T14:26:39;15.20;14.40
24217;DHT22;12356;49.386;8.688;2024-02-15T14:29:09;15.20;16.00
24217;DHT22;12356;49.386;8.688;2024-02-15T14:31:41;15.20;14.70
24217;DHT22;12356;49.386;8.688;2024-02-15T14:34:29;15.20;13.60
24217;DHT22;12356;49.386;8.688;2024-02-15T14:37:00;15.20;15.00
24217;DHT22;12356;49.386;8.688;2024-02-15T14:39:31;15.20;14.70
24217;DHT22;12356;49.386;8.688;2024-02-15T14:42:02;15.20;16.80
24217;DHT22;12356;49.386;8.688;2024-02-15T14:44:32;15.20;17.00
24217;DHT22;12356;49.386;8.688;2024-02-15T14:47:04;15.20;17.40
24217;DHT22;12356;49.386;8.688;2024-02-15T14:49:35;15.20;16.20
24217;DHT22;12356;49.386;8.688;2024-02-15T14:52:06;15.20;16.20
24217;DHT22;12356;49.386;8.688;2024-02-15T14:54:36;15.20;16.30
24217;DHT22;12356;49.386;8.688;2024-02-15T14:57:07;15.20;18.20
24217;DHT22;12356;49.386;8.688;2024-02-15T14:59:37;15.10;16.20
24217;DHT22;12356;49.386;8.688;2024-02-15T15:02:09;15.10;16.20
24217;DHT22;12356;49.386;8.688;2024-02-15T15:04:40;15.10;16.20
24217;DHT22;12356;49.386;8.688;2024-02-15T15:07:29;15.10;16.20
24217;DHT22;12356;49.386;8.688;2024-02-15T15:10:18;15.10;16.20
24217;DHT22;12356;49.386;8.688;2024-02-15T15:13:08;15.10;14.40
24217;DHT22;12356;49.386;8.688;2024-02-15T15:15:40;15.10;16.20
24217;DHT22;12356;49.386;8.688;2024-02-15T15:18:10;15.10;16.70
24217;DHT22;12356;49.386;8.688;2024-02-15T15:20:41;15.10;16.00
24217;DHT22;12356;49.386;8.688;2024-02-15T15:23:12;15.10;12.70
24217;DHT22;12356;49.386;8.688;2024-02-15T15:25:42;15.10;15.10
24217;DHT22;12356;49.386;8.688;2024-02-15T15:28:13;15.10;15.20
24217;DHT22;12356;49.386;8.688;2024-02-15T15:30:48;15.10;14.00
24217;DHT22;12356;49.386;8.688;2024-02-15T15:33:19;15.10;15.30
24217;DHT22;12356;49.386;8.688;2024-02-15T15:35:51;15.10;15.80
24217;DHT22;12356;49.386;8.688;2024-02-15T15:38:21;15.10;16.70
24217;DHT22;12356;49.386;8.688;2024-02-15T15:40:52;15.00;16.80
24217;DHT22;12356;49.386;8.688;2024-02-15T15:43:23;15.00;16.60
24217;DHT22;12356;49.386;8.688;2024-02-15T15:45:53;15.00;16.10
24217;DHT22;12356;49.386;8.688;2024-02-15T15:48:25;15.00;17.00
24217;DHT22;12356;49.386;8.688;2024-02-15T15:50:56;15.00;14.50
24217;DHT22;12356;49.386;8.688;2024-02-15T15:53:29;15.00;15.30
24217;DHT22;12356;49.386;8.688;2024-02-15T15:56:00;15.00;14.20
24217;DHT22;12356;49.386;8.688;2024-02-15T15:58:30;15.00;14.40
24217;DHT22;12356;49.386;8.688;2024-02-15T16:01:01;14.90;15.60
24217;DHT22;12356;49.386;8.688;2024-02-15T16:03:32;15.00;14.60
24217;DHT22;12356;49.386;8.688;2024-02-15T16:06:02;14.90;14.50
24217;DHT22;12356;49.386;8.688;2024-02-15T16:08:34;14.90;15.10
24217;DHT22;12356;49.386;8.688;2024-02-15T16:11:05;14.90;15.30
24217;DHT22;12356;49.386;8.688;2024-02-15T16:13:36;14.90;14.80